Bookmark and Share
Track history (hours):
 

Seafalcon

Last reported at 2014-Apr-15 23:33 UTC. Time now 2014-Apr-19 14:39 UTC.
Position N 59°59' E 026°45'.

Length 250 m; draft 8.4 m.

Type: Tanker. MMSI: 256078000.

NotesDate/timePositionNaut miles runAvg speedWind from/ knotsBaromVisibWave heightAir tempDewpointWater temp
2014-Apr-15 23:33N 59°59' E 026°45'5310.5
2014-Apr-15 18:30N 59°47' E 025°02'1010.4
2014-Apr-15 17:33N 59°46' E 024°43'1010.4
2014-Apr-15 16:33N 59°43' E 024°23'1310.2
2014-Apr-15 15:19N 59°40' E 023°59'810.3
2014-Apr-15 14:31N 59°37' E 023°43'10 5.2
2014-Apr-15 12:33N 59°34' E 023°24'30610.2
2014-Apr-14 06:33N 54°59' E 019°12'1010.3
2014-Apr-14 05:33N 54°49' E 019°09'29 4.1
2014-Apr-13 22:33N 54°24' E 018°43'0 0.0
2014-Apr-13 21:33N 54°24' E 018°43'0 0.0
2014-Apr-13 20:33N 54°24' E 018°43'0 0.0
2014-Apr-13 19:33N 54°24' E 018°43'0 0.0
2014-Apr-13 18:33N 54°24' E 018°43'0 0.0
2014-Apr-13 17:33N 54°24' E 018°43'0 0.0
2014-Apr-13 16:30N 54°24' E 018°43'0 0.0
2014-Apr-13 15:33N 54°24' E 018°43'0 0.0
2014-Apr-13 14:33N 54°24' E 018°43'0 0.0
2014-Apr-13 13:33N 54°24' E 018°43'0 0.0
2014-Apr-13 12:33N 54°24' E 018°43'0 0.0
2014-Apr-13 11:33N 54°24' E 018°43'0 0.0
2014-Apr-13 10:33N 54°24' E 018°43'0 0.0
2014-Apr-13 09:33N 54°24' E 018°43'0 0.0
2014-Apr-13 08:33N 54°24' E 018°43'0 0.0
2014-Apr-13 07:33N 54°24' E 018°43'0 0.0
2014-Apr-13 06:33N 54°24' E 018°43'0 0.0
2014-Apr-13 05:33N 54°24' E 018°43'0 0.0
2014-Apr-13 04:27N 54°24' E 018°43'0 0.0
2014-Apr-13 03:33N 54°24' E 018°43'0 0.0
2014-Apr-13 02:33N 54°24' E 018°43'0 0.0
2014-Apr-13 01:30N 54°24' E 018°43'0 0.0
2014-Apr-13 00:33N 54°24' E 018°43'0 0.0
2014-Apr-12 23:33N 54°24' E 018°43'0 0.0
2014-Apr-12 22:33N 54°24' E 018°43'1 0.8
2014-Apr-12 21:34N 54°24' E 018°45'6 6.3
2014-Apr-12 20:33N 54°28' E 018°54'0 0.5
2014-Apr-12 19:33N 54°28' E 018°54'4 4.5
2014-Apr-12 18:33N 54°31' E 018°60'10 9.8
2014-Apr-12 17:34N 54°40' E 019°03'1110.6
2014-Apr-12 16:33N 54°51' E 018°58'1010.4
2014-Apr-12 15:33N 55°01' E 018°55'1010.5
2014-Apr-12 14:33N 55°11' E 018°52'1110.8
2014-Apr-12 13:33N 55°22' E 018°48'1110.9
2014-Apr-12 12:33N 55°33' E 018°44'283 9.7
2014-Apr-11 07:20N 59°36' E 023°12'810.4
2014-Apr-11 06:33N 59°39' E 023°27'1010.4
2014-Apr-11 05:33N 59°42' E 023°47'1110.4
2014-Apr-11 04:33N 59°45' E 024°07'1310.4
2014-Apr-11 03:19N 59°48' E 024°32'5310.3
2014-Apr-10 22:11N 59°59' E 026°15'710.5
2014-Apr-10 21:33N 60°01' E 026°28'1010.2
2014-Apr-10 20:33N 60°01' E 026°49'10 9.8
2014-Apr-10 19:33N 60°01' E 027°08'  
2014-Apr-06 05:05N 59°59' E 026°45'610.4
2014-Apr-06 04:28N 59°59' E 026°33'4610.5
2014-Apr-06 00:05N 59°48' E 025°03'  

Dump ship's entire track history

sailing weather and tide predictions

Seafalcon — 9HA2814 — position and weather